Ondarroa, Spain
Current Conditions -  °F | °C
As of 1:00 PM on Saturday 20 Dec 2014 (Local Time) from LEBB Reporting Station
Broken Clouds Broken Clouds  
Wind Chill: 55°   Ceiling: 1000
Heat Index: 55°   Visibility: 5mi
Dew Point: 52°   Wind: 1mph
Humidity: 88%   Direction: NA
Pressure: 30.56"   Gusts: NA
Location:  43.32°N, 2.42°W
Report Text: LEBB 201200Z VRB01KT 8000 FEW003 BKN010 BKN019 13/11 Q1035 NOSIG
Loading
Personal Weather Stations






























Interactive Weather Map New forecast layout! Learn more

10-Day Weather Forecast

Advertisements
Track Severe Weather on mobile